Sumterville, Florida
Current Conditions -  °F | °C
As of 8:48 PM on Tuesday 25 Nov 2014 (Local Time) from KLEE Reporting Station
Thunderstorm Thunderstorm  
Wind Chill: 21°   Ceiling: 2200
Heat Index: 21°   Visibility: 3mi
Dew Point: 20°   Wind: 9mph
Humidity: 94%   Direction: 140°SE
Pressure: 29.93"   Gusts: NA
Location:  28.75°N, 82.06°W
Report Text: KLEE 260148Z AUTO 14008KT 3SM VCTS RA BR FEW004 BKN022 OVC055 21/20 A2993 RMK AO2 LTG DSNT E-SW P0026
Loading
Personal Weather Stations






























Interactive Weather Map New forecast layout! Learn more

10-Day Weather Forecast

Advertisements
Track Severe Weather on mobile